Time;durP1;ratioP1;P1;durP2;ratioP2;P2;SDS_P1;SDS_P2;PMS_P1;PMS_P2;Temp;Humidity;BMP_temperature;BMP_pressure;BME280_temperature;BME280_humidity;BME280_pressure;Samples;Min_cycle;Max_cycle;Signal;HPM_P1;HPM_P2
2023/11/24 00:02:13;;;;;;;4.15;3.75;;;;;;;;;;5040078;28;20387;-81
2023/11/24 00:04:39;;;;;;;3.67;3.35;;;;;;;;;;5040433;28;20415;-81
2023/11/24 00:07:05;;;;;;;3.80;3.50;;;;;;;;;;5040478;28;20429;-81
2023/11/24 00:09:31;;;;;;;4.72;3.42;;;;;;;;;;5040762;28;20387;-81
2023/11/24 00:12:00;;;;;;;3.83;3.37;;;;;;;;;;5040836;28;20458;-81
2023/11/24 00:14:26;;;;;;;3.70;3.40;;;;;;;;;;5040241;28;20411;-81
2023/11/24 00:16:52;;;;;;;4.15;3.55;;;;;;;;;;5040391;28;20386;-81
2023/11/24 00:19:19;;;;;;;4.07;3.30;;;;;;;;;;5039746;28;20387;-81
2023/11/24 00:21:46;;;;;;;4.05;3.67;;;;;;;;;;5039714;28;20455;-81
2023/11/24 00:24:13;;;;;;;3.60;3.30;;;;;;;;;;5039839;28;20474;-81
2023/11/24 00:26:39;;;;;;;3.90;3.40;;;;;;;;;;5039674;28;20443;-81
2023/11/24 00:29:05;;;;;;;4.25;3.47;;;;;;;;;;5039418;28;20387;-81
2023/11/24 00:31:32;;;;;;;3.60;3.30;;;;;;;;;;5039730;28;20386;-81
2023/11/24 00:33:58;;;;;;;3.50;3.20;;;;;;;;;;5027781;28;20384;-82
2023/11/24 00:36:24;;;;;;;3.80;3.40;;;;;;;;;;5019662;28;20384;-81
2023/11/24 00:38:50;;;;;;;4.53;3.05;;;;;;;;;;5020004;28;20403;-81
2023/11/24 00:41:17;;;;;;;3.60;3.20;;;;;;;;;;5019332;28;20389;-81
2023/11/24 00:43:43;;;;;;;3.50;3.20;;;;;;;;;;5019569;28;20450;-81
2023/11/24 00:46:11;;;;;;;3.83;3.40;;;;;;;;;;5018954;28;20439;-81
2023/11/24 00:48:37;;;;;;;3.33;3.03;;;;;;;;;;5019279;28;20381;-81
2023/11/24 00:51:04;;;;;;;3.38;3.10;;;;;;;;;;5019446;28;20743;-81
2023/11/24 00:53:30;;;;;;;2.83;2.63;;;;;;;;;;5018756;28;20481;-81
2023/11/24 00:55:56;;;;;;;3.20;2.95;;;;;;;;;;5027818;28;20401;-81
2023/11/24 00:58:22;;;;;;;3.50;3.20;;;;;;;;;;5038791;28;20449;-81
2023/11/24 01:00:48;;;;;;;3.03;2.80;;;;;;;;;;5039163;28;20387;-81
2023/11/24 01:03:15;;;;;;;4.30;3.00;;;;;;;;;;5039209;28;20384;-81
2023/11/24 01:05:41;;;;;;;3.30;2.83;;;;;;;;;;5039626;28;20472;-81
2023/11/24 01:08:07;;;;;;;3.22;2.92;;;;;;;;;;5038793;28;20478;-81
2023/11/24 01:10:33;;;;;;;3.30;3.00;;;;;;;;;;5038623;28;20414;-81
2023/11/24 01:13:02;;;;;;;3.30;3.00;;;;;;;;;;5039824;28;20406;-81
2023/11/24 01:15:28;;;;;;;3.47;3.08;;;;;;;;;;5039468;28;20384;-81
2023/11/24 01:17:54;;;;;;;4.80;3.08;;;;;;;;;;5039100;28;20429;-81
2023/11/24 01:20:21;;;;;;;3.20;2.90;;;;;;;;;;5039743;28;20706;-81
2023/11/24 01:22:48;;;;;;;2.90;2.60;;;;;;;;;;5039045;28;20441;-81
2023/11/24 01:25:15;;;;;;;2.78;2.58;;;;;;;;;;5038860;28;20407;-81
2023/11/24 01:27:41;;;;;;;2.88;2.53;;;;;;;;;;5039663;28;20434;-81
2023/11/24 01:30:10;;;;;;;2.40;2.20;;;;;;;;;;5040108;28;20470;-81
2023/11/24 01:32:36;;;;;;;2.50;2.10;;;;;;;;;;5039496;28;20387;-81
2023/11/24 01:35:03;;;;;;;1.80;1.70;;;;;;;;;;5040199;28;20379;-81
2023/11/24 01:37:29;;;;;;;1.92;1.83;;;;;;;;;;5039235;28;20512;-81
2023/11/24 01:39:55;;;;;;;1.52;1.42;;;;;;;;;;5040299;28;20405;-81
2023/11/24 01:42:21;;;;;;;1.55;1.40;;;;;;;;;;5036236;28;20402;-81
2023/11/24 01:44:47;;;;;;;2.08;1.40;;;;;;;;;;5039942;28;20387;-81
2023/11/24 01:47:13;;;;;;;1.35;1.25;;;;;;;;;;5039911;28;20446;-81
2023/11/24 01:49:39;;;;;;;1.48;1.38;;;;;;;;;;5041990;28;20383;-81
2023/11/24 01:52:06;;;;;;;1.60;1.13;;;;;;;;;;5043380;28;20473;-81
2023/11/24 01:54:36;;;;;;;1.60;1.15;;;;;;;;;;5043320;28;20375;-81
2023/11/24 01:57:03;;;;;;;1.00;1.00;;;;;;;;;;5043021;28;20449;-81
2023/11/24 01:59:29;;;;;;;1.40;1.00;;;;;;;;;;5043209;28;20748;-81
2023/11/24 02:01:55;;;;;;;4.70;1.45;;;;;;;;;;5043641;28;20374;-81
2023/11/24 02:04:22;;;;;;;1.20;1.10;;;;;;;;;;5042842;28;20410;-81
2023/11/24 02:06:48;;;;;;;1.80;1.20;;;;;;;;;;5041801;28;20414;-81
2023/11/24 02:09:14;;;;;;;1.40;1.30;;;;;;;;;;5042620;28;20402;-81
2023/11/24 02:11:40;;;;;;;1.42;1.27;;;;;;;;;;5042216;28;20394;-81
2023/11/24 02:14:06;;;;;;;1.20;1.10;;;;;;;;;;5043282;28;20741;-81
2023/11/24 02:16:33;;;;;;;2.35;1.20;;;;;;;;;;5042571;28;20391;-81
2023/11/24 02:18:59;;;;;;;1.40;1.30;;;;;;;;;;5042655;28;20437;-81
2023/11/24 02:21:25;;;;;;;2.10;1.40;;;;;;;;;;5043394;28;20395;-81
2023/11/24 02:23:51;;;;;;;1.30;1.20;;;;;;;;;;5042383;28;20395;-81
2023/11/24 02:26:17;;;;;;;2.75;1.80;;;;;;;;;;5042669;28;20418;-81
2023/11/24 02:28:43;;;;;;;2.57;1.80;;;;;;;;;;5040893;28;20791;-81
2023/11/24 02:31:09;;;;;;;1.92;1.75;;;;;;;;;;5042224;28;20447;-81
2023/11/24 02:33:35;;;;;;;1.88;1.63;;;;;;;;;;5041662;28;20429;-81
2023/11/24 02:36:05;;;;;;;2.10;1.90;;;;;;;;;;5041610;28;20383;-81
2023/11/24 02:38:34;;;;;;;2.17;1.58;;;;;;;;;;5041948;28;20381;-81
2023/11/24 02:41:00;;;;;;;2.13;1.92;;;;;;;;;;5041651;28;20433;-81
2023/11/24 02:43:29;;;;;;;2.30;2.10;;;;;;;;;;5041811;28;20401;-81
2023/11/24 02:45:55;;;;;;;2.38;2.10;;;;;;;;;;5040817;28;20437;-81
2023/11/24 02:48:21;;;;;;;2.43;2.10;;;;;;;;;;5022052;28;20783;-81
2023/11/24 02:50:48;;;;;;;2.47;2.28;;;;;;;;;;5041405;28;20398;-81
2023/11/24 02:53:14;;;;;;;3.15;2.75;;;;;;;;;;5041836;28;20383;-81
2023/11/24 02:55:40;;;;;;;3.05;2.75;;;;;;;;;;5042441;28;20394;-81
2023/11/24 02:58:06;;;;;;;3.67;2.97;;;;;;;;;;5041935;28;20387;-81
2023/11/24 03:00:32;;;;;;;3.33;3.03;;;;;;;;;;5041469;28;20388;-81
2023/11/24 03:02:59;;;;;;;3.60;3.30;;;;;;;;;;5042083;28;20391;-81
2023/11/24 03:05:25;;;;;;;3.60;3.25;;;;;;;;;;5041389;28;20379;-81
2023/11/24 03:07:51;;;;;;;4.22;3.78;;;;;;;;;;5039906;28;20418;-81
2023/11/24 03:10:17;;;;;;;4.43;4.03;;;;;;;;;;5041150;28;20407;-81
2023/11/24 03:12:43;;;;;;;4.03;3.72;;;;;;;;;;5041955;28;20383;-81
2023/11/24 03:15:11;;;;;;;4.20;3.80;;;;;;;;;;5041513;28;20873;-81
2023/11/24 03:17:37;;;;;;;4.10;3.80;;;;;;;;;;5041131;28;20394;-81
2023/11/24 03:20:03;;;;;;;4.55;4.15;;;;;;;;;;5041619;28;20380;-81
2023/11/24 03:22:29;;;;;;;4.28;3.97;;;;;;;;;;5041160;28;20403;-81
2023/11/24 03:24:55;;;;;;;4.50;4.10;;;;;;;;;;5041261;28;20509;-81
2023/11/24 03:27:21;;;;;;;4.40;4.00;;;;;;;;;;5038415;28;20753;-81
2023/11/24 03:29:47;;;;;;;4.68;4.18;;;;;;;;;;5022659;28;20403;-81
2023/11/24 03:32:13;;;;;;;4.80;4.40;;;;;;;;;;5040721;28;20414;-81
2023/11/24 03:34:40;;;;;;;5.28;4.30;;;;;;;;;;5040978;28;20391;-81
2023/11/24 03:37:06;;;;;;;4.93;4.53;;;;;;;;;;5041200;28;20394;-81
2023/11/24 03:39:32;;;;;;;5.13;4.53;;;;;;;;;;5041289;28;20391;-81
2023/11/24 03:41:58;;;;;;;5.22;4.25;;;;;;;;;;5040630;28;20493;-81
2023/11/24 03:44:24;;;;;;;4.90;4.40;;;;;;;;;;5040599;28;20391;-81
2023/11/24 03:46:50;;;;;;;4.82;4.43;;;;;;;;;;5037480;28;20553;-82
2023/11/24 03:49:16;;;;;;;4.97;4.57;;;;;;;;;;5040695;28;20387;-81
2023/11/24 03:51:42;;;;;;;4.70;4.30;;;;;;;;;;5040734;28;20439;-81
2023/11/24 03:54:08;;;;;;;4.68;4.28;;;;;;;;;;5040929;28;20423;-81
2023/11/24 03:56:33;;;;;;;5.13;4.65;;;;;;;;;;5039599;28;20383;-81
2023/11/24 03:58:59;;;;;;;5.93;5.15;;;;;;;;;;5040969;28;20387;-81
2023/11/24 04:01:27;;;;;;;5.32;4.82;;;;;;;;;;5041486;28;20422;-81
2023/11/24 04:03:55;;;;;;;5.45;4.95;;;;;;;;;;5040204;28;20860;-81
2023/11/24 04:06:21;;;;;;;5.18;4.68;;;;;;;;;;5039557;28;20414;-81
2023/11/24 04:08:47;;;;;;;4.70;4.20;;;;;;;;;;5040986;28;20394;-81
2023/11/24 04:11:13;;;;;;;5.28;4.68;;;;;;;;;;5039815;28;20804;-81
2023/11/24 04:13:39;;;;;;;5.07;4.67;;;;;;;;;;5039266;28;20398;-81
2023/11/24 04:16:07;;;;;;;6.13;4.70;;;;;;;;;;5041224;28;20402;-81
2023/11/24 04:18:36;;;;;;;5.15;4.30;;;;;;;;;;5041041;28;20725;-81
2023/11/24 04:21:06;;;;;;;4.90;4.45;;;;;;;;;;5040528;28;20387;-81
2023/11/24 04:23:32;;;;;;;5.40;4.32;;;;;;;;;;5040714;28;20720;-81
2023/11/24 04:25:58;;;;;;;4.75;4.35;;;;;;;;;;5009195;28;20551;-81
2023/11/24 04:28:24;;;;;;;4.90;4.50;;;;;;;;;;5020584;28;20395;-81
2023/11/24 04:30:50;;;;;;;5.20;4.70;;;;;;;;;;5020337;28;20444;-81
2023/11/24 04:33:16;;;;;;;5.67;5.10;;;;;;;;;;5021062;28;20428;-81
2023/11/24 04:35:42;;;;;;;6.60;5.07;;;;;;;;;;5020065;28;20384;-81
2023/11/24 04:38:08;;;;;;;5.60;5.10;;;;;;;;;;5020848;28;20393;-81
2023/11/24 04:40:34;;;;;;;6.25;5.65;;;;;;;;;;5020741;28;20866;-81
2023/11/24 04:43:00;;;;;;;6.47;5.88;;;;;;;;;;5020759;28;20400;-81
2023/11/24 04:45:26;;;;;;;6.88;6.18;;;;;;;;;;5020127;28;20401;-81
2023/11/24 04:47:52;;;;;;;6.72;6.10;;;;;;;;;;5020745;28;20420;-81
2023/11/24 04:50:18;;;;;;;7.40;6.70;;;;;;;;;;5019799;28;20488;-81
2023/11/24 04:52:44;;;;;;;7.82;7.03;;;;;;;;;;5020171;28;20759;-81
2023/11/24 04:55:12;;;;;;;7.75;7.05;;;;;;;;;;5021180;28;20385;-81
2023/11/24 04:57:38;;;;;;;8.93;7.20;;;;;;;;;;5020234;28;20396;-81
2023/11/24 05:00:08;;;;;;;8.30;7.40;;;;;;;;;;5020187;28;20404;-81
2023/11/24 05:02:34;;;;;;;8.27;7.47;;;;;;;;;;5020245;28;20385;-81
2023/11/24 05:05:00;;;;;;;8.15;7.38;;;;;;;;;;5023535;28;20384;-81
2023/11/24 05:07:27;;;;;;;9.52;8.63;;;;;;;;;;5039048;28;20427;-81
2023/11/24 05:09:53;;;;;;;9.07;7.90;;;;;;;;;;5039514;28;20871;-81
2023/11/24 05:12:19;;;;;;;8.38;7.68;;;;;;;;;;5039080;28;20410;-81
2023/11/24 05:14:46;;;;;;;8.90;8.10;;;;;;;;;;5039209;28;20769;-81
2023/11/24 05:17:12;;;;;;;9.48;8.23;;;;;;;;;;5039458;28;20426;-81
2023/11/24 05:19:38;;;;;;;8.93;8.13;;;;;;;;;;5039386;28;20861;-81
2023/11/24 05:22:04;;;;;;;9.03;8.20;;;;;;;;;;5039632;28;20452;-81
2023/11/24 05:24:30;;;;;;;8.80;8.00;;;;;;;;;;5040039;28;20395;-81
2023/11/24 05:26:56;;;;;;;9.53;8.50;;;;;;;;;;5039609;28;20542;-81
2023/11/24 05:29:23;;;;;;;9.27;8.38;;;;;;;;;;5040773;28;20394;-81
2023/11/24 05:31:50;;;;;;;10.15;9.13;;;;;;;;;;5039620;28;20856;-81
2023/11/24 05:34:16;;;;;;;9.80;8.80;;;;;;;;;;5039473;28;20411;-81
2023/11/24 05:36:45;;;;;;;10.02;9.02;;;;;;;;;;5039817;28;20429;-81
2023/11/24 05:39:14;;;;;;;10.77;9.13;;;;;;;;;;5040298;28;20749;-81
2023/11/24 05:41:41;;;;;;;10.68;9.57;;;;;;;;;;5039123;28;20449;-81
2023/11/24 05:44:07;;;;;;;12.60;10.45;;;;;;;;;;5038967;28;20445;-81
2023/11/24 05:46:33;;;;;;;10.73;9.70;;;;;;;;;;5039444;28;20896;-81
2023/11/24 05:48:59;;;;;;;10.95;9.85;;;;;;;;;;5036442;28;20399;-81
2023/11/24 05:51:25;;;;;;;11.13;10.03;;;;;;;;;;5039354;28;20893;-81
2023/11/24 05:53:51;;;;;;;11.30;10.20;;;;;;;;;;5039856;28;20383;-81
2023/11/24 05:56:18;;;;;;;11.50;10.30;;;;;;;;;;5039633;28;20725;-81
2023/11/24 05:58:44;;;;;;;11.47;10.37;;;;;;;;;;5039161;28;20417;-81
2023/11/24 06:01:10;;;;;;;12.45;10.55;;;;;;;;;;5038825;28;20395;-81
2023/11/24 06:03:36;;;;;;;11.05;9.98;;;;;;;;;;5038993;28;20391;-81
2023/11/24 06:06:02;;;;;;;12.65;10.60;;;;;;;;;;5038919;28;20406;-81
2023/11/24 06:08:28;;;;;;;11.25;10.15;;;;;;;;;;5039542;28;20907;-81
2023/11/24 06:10:54;;;;;;;11.93;10.70;;;;;;;;;;5039445;28;20435;-81
2023/11/24 06:13:20;;;;;;;13.35;10.30;;;;;;;;;;5038974;28;20856;-81
2023/11/24 06:15:46;;;;;;;11.10;10.00;;;;;;;;;;5039771;28;20724;-81
2023/11/24 06:18:12;;;;;;;12.00;10.67;;;;;;;;;;5040141;28;20383;-81
2023/11/24 06:20:38;;;;;;;12.30;10.20;;;;;;;;;;5039332;28;20383;-81
2023/11/24 06:23:04;;;;;;;11.52;10.43;;;;;;;;;;5038821;28;20787;-81
2023/11/24 06:25:30;;;;;;;11.10;9.88;;;;;;;;;;5038973;28;20397;-81
2023/11/24 06:27:56;;;;;;;11.15;9.75;;;;;;;;;;5024402;28;20417;-81
2023/11/24 06:30:22;;;;;;;11.82;10.30;;;;;;;;;;5020270;28;20380;-81
2023/11/24 06:32:48;;;;;;;11.88;10.65;;;;;;;;;;5019865;28;20861;-81
2023/11/24 06:35:15;;;;;;;11.40;10.10;;;;;;;;;;5019864;28;20395;-81
2023/11/24 06:37:41;;;;;;;11.05;9.95;;;;;;;;;;5022893;28;20511;-81
2023/11/24 06:40:11;;;;;;;12.10;10.77;;;;;;;;;;5016335;28;20388;-81
2023/11/24 06:42:37;;;;;;;10.65;9.65;;;;;;;;;;5016567;28;20383;-81
2023/11/24 06:45:03;;;;;;;10.82;9.73;;;;;;;;;;5000599;28;20464;-81
2023/11/24 06:47:29;;;;;;;11.02;9.93;;;;;;;;;;5022021;28;20450;-81
2023/11/24 06:49:56;;;;;;;11.73;10.00;;;;;;;;;;5021498;28;20433;-81
2023/11/24 06:52:22;;;;;;;10.60;9.50;;;;;;;;;;5021890;28;20392;-81
2023/11/24 06:54:48;;;;;;;11.00;9.90;;;;;;;;;;5021810;28;20395;-81
2023/11/24 06:57:14;;;;;;;10.20;9.20;;;;;;;;;;5036894;28;20387;-83
2023/11/24 06:59:40;;;;;;;10.55;9.23;;;;;;;;;;5038137;28;20845;-83
2023/11/24 07:02:07;;;;;;;11.90;10.07;;;;;;;;;;5037171;28;20403;-83
2023/11/24 07:04:33;;;;;;;11.30;10.10;;;;;;;;;;5036393;28;20478;-82
2023/11/24 07:06:59;;;;;;;11.73;10.48;;;;;;;;;;5019564;28;20750;-82
2023/11/24 07:09:25;;;;;;;11.18;9.93;;;;;;;;;;5039669;28;20379;-82
2023/11/24 07:11:52;;;;;;;11.13;10.03;;;;;;;;;;5038532;28;20391;-83
2023/11/24 07:14:18;;;;;;;11.40;10.20;;;;;;;;;;5038337;28;20391;-83
2023/11/24 07:16:44;;;;;;;10.90;9.80;;;;;;;;;;5038514;28;20387;-83
2023/11/24 07:19:10;;;;;;;11.50;10.30;;;;;;;;;;5040083;28;20387;-81
2023/11/24 07:21:38;;;;;;;12.60;10.45;;;;;;;;;;5042131;28;20445;-81
2023/11/24 07:24:05;;;;;;;11.50;10.27;;;;;;;;;;5043236;28;20430;-81
2023/11/24 07:26:31;;;;;;;12.57;10.82;;;;;;;;;;5041901;28;20407;-81
2023/11/24 07:28:57;;;;;;;11.27;10.05;;;;;;;;;;5039539;28;20398;-81
2023/11/24 07:31:24;;;;;;;11.48;9.90;;;;;;;;;;5039632;28;20391;-81
2023/11/24 07:33:50;;;;;;;10.60;9.50;;;;;;;;;;5039729;28;20694;-81
2023/11/24 07:36:17;;;;;;;13.73;10.00;;;;;;;;;;5039679;28;20383;-82
2023/11/24 07:38:43;;;;;;;11.52;9.60;;;;;;;;;;5040250;28;20415;-81
2023/11/24 07:41:09;;;;;;;10.68;9.65;;;;;;;;;;5040258;28;20387;-82
2023/11/24 07:43:35;;;;;;;9.63;8.73;;;;;;;;;;5039814;28;20512;-81
2023/11/24 07:46:06;;;;;;;9.82;8.80;;;;;;;;;;5039801;28;20387;-82
2023/11/24 07:48:33;;;;;;;9.20;8.30;;;;;;;;;;5038395;28;20462;-82
2023/11/24 07:50:59;;;;;;;9.93;8.73;;;;;;;;;;5040345;28;20551;-82
2023/11/24 07:53:25;;;;;;;9.30;8.40;;;;;;;;;;5039475;28;20441;-82
2023/11/24 07:55:51;;;;;;;8.93;8.07;;;;;;;;;;5037751;28;20930;-82
2023/11/24 07:58:19;;;;;;;9.27;8.30;;;;;;;;;;5019457;28;20440;-82
2023/11/24 08:00:45;;;;;;;9.27;8.37;;;;;;;;;;5018426;28;20389;-82
2023/11/24 08:03:12;;;;;;;10.02;8.30;;;;;;;;;;5019225;28;20392;-82
2023/11/24 08:05:39;;;;;;;9.13;8.30;;;;;;;;;;5020218;28;20472;-82
2023/11/24 08:08:05;;;;;;;10.00;9.00;;;;;;;;;;5020414;28;20436;-82
2023/11/24 08:10:31;;;;;;;8.95;8.05;;;;;;;;;;5020601;28;20461;-82
2023/11/24 08:12:57;;;;;;;9.93;8.93;;;;;;;;;;5019149;28;20441;-82
2023/11/24 08:15:24;;;;;;;8.97;8.07;;;;;;;;;;5019054;28;20498;-82
2023/11/24 08:17:50;;;;;;;8.38;7.68;;;;;;;;;;5025903;28;20395;-81
2023/11/24 08:20:18;;;;;;;10.13;9.05;;;;;;;;;;5040533;28;20391;-81
2023/11/24 08:22:44;;;;;;;9.47;8.47;;;;;;;;;;5038235;28;20461;-80
2023/11/24 08:25:11;;;;;;;10.43;8.80;;;;;;;;;;5038074;28;20484;-81
2023/11/24 08:27:38;;;;;;;9.80;8.82;;;;;;;;;;5037621;28;20415;-81
2023/11/24 08:30:10;;;;;;;8.55;7.70;;;;;;;;;;5038027;28;20844;-81
2023/11/24 08:32:36;;;;;;;9.15;8.07;;;;;;;;;;5037420;28;20436;-81
2023/11/24 08:35:02;;;;;;;8.18;7.38;;;;;;;;;;5037245;28;20394;-81
2023/11/24 08:37:30;;;;;;;7.72;7.03;;;;;;;;;;5036773;28;20728;-81
2023/11/24 08:39:56;;;;;;;7.68;6.97;;;;;;;;;;5038490;28;20460;-81
2023/11/24 08:42:23;;;;;;;7.17;6.50;;;;;;;;;;5038723;28;20387;-81
2023/11/24 08:44:49;;;;;;;6.50;5.90;;;;;;;;;;5038643;28;20418;-81
2023/11/24 08:47:15;;;;;;;6.47;5.88;;;;;;;;;;5020398;28;20415;-81
2023/11/24 08:49:41;;;;;;;6.32;5.72;;;;;;;;;;5037805;28;20436;-81
2023/11/24 08:52:09;;;;;;;7.05;6.22;;;;;;;;;;5037638;28;20391;-81
2023/11/24 08:54:36;;;;;;;5.90;5.35;;;;;;;;;;5038695;28;20390;-81
2023/11/24 08:57:04;;;;;;;6.17;5.57;;;;;;;;;;5037582;28;20865;-81
2023/11/24 08:59:30;;;;;;;5.43;5.03;;;;;;;;;;5037528;28;20473;-81
2023/11/24 09:01:56;;;;;;;5.75;5.25;;;;;;;;;;5037660;28;20422;-81
2023/11/24 09:04:22;;;;;;;5.03;4.53;;;;;;;;;;5038126;28;20455;-81
2023/11/24 09:06:48;;;;;;;5.07;4.57;;;;;;;;;;5038353;28;20410;-81
2023/11/24 09:09:14;;;;;;;4.95;4.55;;;;;;;;;;5039052;28;20387;-81
2023/11/24 09:11:41;;;;;;;5.10;4.40;;;;;;;;;;5038154;28;20383;-81
2023/11/24 09:14:07;;;;;;;4.43;4.03;;;;;;;;;;5038537;28;20445;-81
2023/11/24 09:16:34;;;;;;;4.28;3.88;;;;;;;;;;5038256;28;20390;-81
2023/11/24 09:19:00;;;;;;;4.13;3.72;;;;;;;;;;5037783;28;20375;-81
2023/11/24 09:21:27;;;;;;;4.00;3.70;;;;;;;;;;5037767;28;20509;-81
2023/11/24 09:23:53;;;;;;;4.53;4.13;;;;;;;;;;5021642;28;20418;-81
2023/11/24 09:26:19;;;;;;;4.60;4.20;;;;;;;;;;5039100;28;20525;-81
2023/11/24 09:28:45;;;;;;;4.55;4.15;;;;;;;;;;5038999;28;20425;-81
2023/11/24 09:31:12;;;;;;;4.55;4.15;;;;;;;;;;5036834;28;20383;-81
2023/11/24 09:33:39;;;;;;;4.90;4.50;;;;;;;;;;5018719;28;20391;-81
2023/11/24 09:36:06;;;;;;;4.63;4.20;;;;;;;;;;5036124;28;20440;-81
2023/11/24 09:38:33;;;;;;;5.60;5.10;;;;;;;;;;5036574;28;20391;-81
2023/11/24 09:41:11;;;;;;;5.50;5.00;;;;;;;;;;5036123;28;20829;-81
2023/11/24 09:43:37;;;;;;;5.53;5.03;;;;;;;;;;5035766;28;20844;-81
2023/11/24 09:46:03;;;;;;;5.85;5.35;;;;;;;;;;5036276;28;20391;-81
2023/11/24 09:48:31;;;;;;;5.60;5.10;;;;;;;;;;5036388;28;20833;-81
2023/11/24 09:50:59;;;;;;;5.77;5.27;;;;;;;;;;5034901;28;20434;-81
2023/11/24 09:53:26;;;;;;;5.88;5.38;;;;;;;;;;5035480;28;20391;-82
2023/11/24 09:55:52;;;;;;;6.68;5.53;;;;;;;;;;5019317;28;20395;-82
2023/11/24 09:58:20;;;;;;;6.05;5.45;;;;;;;;;;5037679;28;20410;-81
2023/11/24 10:00:46;;;;;;;6.35;5.75;;;;;;;;;;5034259;28;20454;-82
2023/11/24 10:03:13;;;;;;;7.15;6.55;;;;;;;;;;5037178;28;20751;-81
2023/11/24 10:05:39;;;;;;;8.57;7.63;;;;;;;;;;5037300;28;20406;-81
2023/11/24 10:08:07;;;;;;;10.60;9.05;;;;;;;;;;5037467;28;20439;-81
2023/11/24 10:10:33;;;;;;;11.15;8.57;;;;;;;;;;5038377;28;20502;-81
2023/11/24 10:13:02;;;;;;;12.50;9.05;;;;;;;;;;5034468;28;20439;-81
2023/11/24 10:15:29;;;;;;;11.82;8.88;;;;;;;;;;5020300;28;20384;-81
2023/11/24 10:17:57;;;;;;;8.45;6.95;;;;;;;;;;5020469;28;20878;-81
2023/11/24 10:20:23;;;;;;;9.40;7.47;;;;;;;;;;5020750;28;20393;-83
2023/11/24 10:22:52;;;;;;;12.48;8.02;;;;;;;;;;5019596;28;20434;-82
2023/11/24 10:25:20;;;;;;;6.18;5.57;;;;;;;;;;5020222;28;20388;-81
2023/11/24 10:27:46;;;;;;;6.35;5.75;;;;;;;;;;5020196;28;20773;-81
2023/11/24 10:30:12;;;;;;;5.23;4.73;;;;;;;;;;5020456;28;20380;-81
2023/11/24 10:32:45;;;;;;;5.03;4.63;;;;;;;;;;5019750;28;20396;-82
2023/11/24 10:35:14;;;;;;;6.72;4.95;;;;;;;;;;5020202;28;20396;-81
2023/11/24 10:37:43;;;;;;;5.18;4.78;;;;;;;;;;5020560;28;20381;-81
2023/11/24 10:40:14;;;;;;;5.00;4.60;;;;;;;;;;5019456;28;20804;-81
2023/11/24 10:42:41;;;;;;;4.47;4.18;;;;;;;;;;5021071;28;20460;-81
2023/11/24 10:45:11;;;;;;;4.78;4.38;;;;;;;;;;5039087;28;20383;-81
2023/11/24 10:47:43;;;;;;;4.40;3.97;;;;;;;;;;5038689;28;20411;-81
2023/11/24 10:50:12;;;;;;;4.43;4.07;;;;;;;;;;5040292;28;20437;-80
2023/11/24 10:53:02;;;;;;;4.70;4.30;;;;;;;;;;5036347;28;20911;-80
2023/11/24 10:55:30;;;;;;;4.53;4.13;;;;;;;;;;5035604;28;20866;-80
2023/11/24 10:57:57;;;;;;;4.97;4.57;;;;;;;;;;5029274;28;20385;-80
2023/11/24 11:00:23;;;;;;;5.03;4.53;;;;;;;;;;5026733;28;20992;-79
2023/11/24 11:02:51;;;;;;;4.40;3.88;;;;;;;;;;5025593;28;20403;-80
2023/11/24 11:05:29;;;;;;;5.10;4.60;;;;;;;;;;5035364;28;20379;-80
2023/11/24 11:08:03;;;;;;;4.57;4.17;;;;;;;;;;5054319;22;20446;-79
2023/11/24 11:10:33;;;;;;;4.55;4.15;;;;;;;;;;5024510;28;20400;-79
2023/11/24 11:13:01;;;;;;;4.95;4.38;;;;;;;;;;5023849;28;20387;-80
2023/11/24 11:15:30;;;;;;;4.75;4.35;;;;;;;;;;5039642;28;20395;-80
2023/11/24 11:18:15;;;;;;;4.97;4.47;;;;;;;;;;5021405;28;20400;-79
2023/11/24 11:20:42;;;;;;;5.28;4.78;;;;;;;;;;4999064;28;20394;-79
2023/11/24 11:23:09;;;;;;;5.47;5.00;;;;;;;;;;5000769;28;20935;-79
2023/11/24 11:25:35;;;;;;;5.43;4.93;;;;;;;;;;5000857;28;20473;-79
2023/11/24 11:28:22;;;;;;;5.10;4.60;;;;;;;;;;5001313;28;20430;-80
2023/11/24 11:30:48;;;;;;;5.03;4.63;;;;;;;;;;5011881;28;20455;-80
2023/11/24 11:33:14;;;;;;;5.30;4.80;;;;;;;;;;5020047;28;20794;-80
2023/11/24 11:35:41;;;;;;;5.65;5.05;;;;;;;;;;5019491;28;20389;-80
2023/11/24 11:38:08;;;;;;;4.97;4.47;;;;;;;;;;5019915;28;20900;-80
2023/11/24 11:40:35;;;;;;;3.85;3.55;;;;;;;;;;5019352;28;20874;-80
2023/11/24 11:43:08;;;;;;;4.30;3.90;;;;;;;;;;5020172;28;20839;-80
2023/11/24 11:45:46;;;;;;;4.60;4.07;;;;;;;;;;5001267;28;20535;-80
2023/11/24 11:48:13;;;;;;;4.30;3.90;;;;;;;;;;5020227;28;20424;-80
2023/11/24 11:50:45;;;;;;;4.10;3.60;;;;;;;;;;5019953;28;20395;-80
2023/11/24 11:53:12;;;;;;;4.43;4.03;;;;;;;;;;5000207;28;20390;-80
2023/11/24 11:55:40;;;;;;;4.10;3.70;;;;;;;;;;4998487;28;20401;-80
2023/11/24 11:58:06;;;;;;;3.83;3.10;;;;;;;;;;4999692;28;20477;-80
2023/11/24 12:00:32;;;;;;;3.58;3.28;;;;;;;;;;5000044;28;20394;-80
2023/11/24 12:02:59;;;;;;;3.40;3.10;;;;;;;;;;4999579;28;20389;-80
2023/11/24 12:05:26;;;;;;;3.78;3.47;;;;;;;;;;5013900;28;20389;-80
2023/11/24 12:07:57;;;;;;;3.90;3.53;;;;;;;;;;5019118;28;20408;-80
2023/11/24 12:10:32;;;;;;;3.72;3.20;;;;;;;;;;5020168;28;20392;-80
2023/11/24 12:13:04;;;;;;;2.80;2.60;;;;;;;;;;5020249;28;20443;-80
2023/11/24 12:15:30;;;;;;;3.40;3.10;;;;;;;;;;5020103;28;20529;-81
2023/11/24 12:17:56;;;;;;;3.90;3.60;;;;;;;;;;5017938;28;20416;-80
2023/11/24 12:20:23;;;;;;;3.88;3.47;;;;;;;;;;5019741;28;20470;-80
2023/11/24 12:22:50;;;;;;;2.97;2.78;;;;;;;;;;5020012;28;20388;-80
2023/11/24 12:25:16;;;;;;;3.72;3.05;;;;;;;;;;5019349;28;20404;-80
2023/11/24 12:27:43;;;;;;;3.28;3.00;;;;;;;;;;5018734;28;20408;-80
2023/11/24 12:30:13;;;;;;;2.90;2.70;;;;;;;;;;5019273;28;20439;-80
2023/11/24 12:32:40;;;;;;;2.65;2.38;;;;;;;;;;5017703;28;20389;-80
2023/11/24 12:35:08;;;;;;;2.28;1.42;;;;;;;;;;5017955;28;20731;-80
2023/11/24 12:37:34;;;;;;;1.65;0.90;;;;;;;;;;5016793;28;20774;-80
2023/11/24 12:40:01;;;;;;;0.95;0.80;;;;;;;;;;5016854;28;20396;-80
2023/11/24 12:42:30;;;;;;;2.55;1.00;;;;;;;;;;5017144;28;20377;-80
2023/11/24 12:44:58;;;;;;;1.23;0.80;;;;;;;;;;5017825;28;20452;-80
2023/11/24 12:47:27;;;;;;;1.67;0.73;;;;;;;;;;5017897;28;20574;-80
2023/11/24 12:49:56;;;;;;;1.10;0.80;;;;;;;;;;5017292;28;20393;-81
2023/11/24 12:52:23;;;;;;;1.90;1.02;;;;;;;;;;5018743;28;20381;-81
2023/11/24 12:54:49;;;;;;;1.33;0.88;;;;;;;;;;5017490;28;20472;-81
2023/11/24 12:57:16;;;;;;;2.88;1.30;;;;;;;;;;5017823;28;20884;-80
2023/11/24 12:59:42;;;;;;;2.90;1.20;;;;;;;;;;5018442;28;20459;-81
2023/11/24 13:02:09;;;;;;;3.50;1.05;;;;;;;;;;5018020;28;20817;-80
2023/11/24 13:04:37;;;;;;;1.30;0.73;;;;;;;;;;5018764;28;20384;-81
2023/11/24 13:07:03;;;;;;;2.30;1.17;;;;;;;;;;5018337;28;20408;-81
2023/11/24 13:09:31;;;;;;;2.10;1.10;;;;;;;;;;5018148;28;20403;-81
2023/11/24 13:11:57;;;;;;;2.20;1.00;;;;;;;;;;5018401;28;20380;-81
2023/11/24 13:14:23;;;;;;;2.67;1.10;;;;;;;;;;5000720;28;20721;-81
2023/11/24 13:16:51;;;;;;;2.55;1.45;;;;;;;;;;5018549;28;20454;-81
2023/11/24 13:19:18;;;;;;;3.10;1.25;;;;;;;;;;5018478;28;20540;-81
2023/11/24 13:21:46;;;;;;;2.88;1.23;;;;;;;;;;5017951;28;20429;-80
2023/11/24 13:24:12;;;;;;;4.78;1.35;;;;;;;;;;5018667;28;20413;-80
2023/11/24 13:26:38;;;;;;;4.30;1.50;;;;;;;;;;5017613;28;20482;-81
2023/11/24 13:29:04;;;;;;;2.25;1.30;;;;;;;;;;5017835;28;20400;-81
2023/11/24 13:31:30;;;;;;;3.42;1.23;;;;;;;;;;5018486;28;20392;-81
2023/11/24 13:33:56;;;;;;;4.78;1.65;;;;;;;;;;5000541;28;20885;-80
2023/11/24 13:36:22;;;;;;;4.78;1.38;;;;;;;;;;5018418;28;20385;-81
2023/11/24 13:38:48;;;;;;;4.27;1.30;;;;;;;;;;5018656;28;20454;-81
2023/11/24 13:41:14;;;;;;;5.05;1.45;;;;;;;;;;5018731;28;21155;-80
2023/11/24 13:43:40;;;;;;;3.30;1.40;;;;;;;;;;5018702;28;20427;-81
2023/11/24 13:46:07;;;;;;;5.47;1.40;;;;;;;;;;5020017;28;20388;-81
2023/11/24 13:48:34;;;;;;;7.47;1.88;;;;;;;;;;5021597;28;20421;-80
2023/11/24 13:51:03;;;;;;;4.32;1.25;;;;;;;;;;5021360;28;20399;-80
2023/11/24 13:53:31;;;;;;;4.65;1.45;;;;;;;;;;5021629;28;20400;-81
2023/11/24 13:55:57;;;;;;;4.03;1.38;;;;;;;;;;5021728;28;20392;-81
2023/11/24 13:58:23;;;;;;;4.63;1.75;;;;;;;;;;5021816;28;20647;-80
2023/11/24 14:00:51;;;;;;;5.15;1.33;;;;;;;;;;5020798;28;20400;-80
2023/11/24 14:03:17;;;;;;;6.15;1.60;;;;;;;;;;5021037;28;20388;-81
2023/11/24 14:05:43;;;;;;;4.47;1.20;;;;;;;;;;5019128;28;20470;-81
2023/11/24 14:08:10;;;;;;;4.80;1.30;;;;;;;;;;5019019;28;20439;-79
2023/11/24 14:10:36;;;;;;;3.45;1.15;;;;;;;;;;5019369;28;20385;-79
2023/11/24 14:13:04;;;;;;;3.20;1.33;;;;;;;;;;5019140;28;20735;-79
2023/11/24 14:15:30;;;;;;;4.03;1.50;;;;;;;;;;5017411;28;20381;-83
2023/11/24 14:17:56;;;;;;;2.97;1.35;;;;;;;;;;5020792;28;20847;-82
2023/11/24 14:20:25;;;;;;;3.38;1.30;;;;;;;;;;5020705;28;20388;-80
2023/11/24 14:22:52;;;;;;;4.10;1.40;;;;;;;;;;5021585;28;20380;-80
2023/11/24 14:25:18;;;;;;;3.55;1.08;;;;;;;;;;5020438;28;20389;-80
2023/11/24 14:27:44;;;;;;;2.97;1.40;;;;;;;;;;5020709;28;20949;-79
2023/11/24 14:30:12;;;;;;;5.13;1.60;;;;;;;;;;5002433;28;20453;-80
2023/11/24 14:32:38;;;;;;;2.85;1.45;;;;;;;;;;5000389;28;20395;-80
2023/11/24 14:35:10;;;;;;;2.90;1.20;;;;;;;;;;5000370;28;20492;-80
2023/11/24 14:37:36;;;;;;;4.13;1.40;;;;;;;;;;5003660;28;20784;-80
2023/11/24 14:40:14;;;;;;;3.38;1.38;;;;;;;;;;5004697;28;20390;-80